| Date | Time | Temp. (oF) | Dew Point (oF) | Rel. Hum. (%) | Press. (in.) | Wind Dir. | Wind Speed (mph) | Hourly Rainfall (in.) |
|
|---|---|---|---|---|---|---|---|---|---|
| 1 | 03/24 | 00:00 | 46 | 37 | 73 | 29.73 | NW | 9 | 0.00 |
| 2 | 03/23 | 23:00 | 46 | 38 | 74 | 29.71 | WNW | 17 | 0.00 |
| 3 | 03/23 | 22:00 | 47 | 39 | 74 | 29.68 | NW | 9 | 0.00 |
| 4 | 03/23 | 21:00 | 47 | 38 | 72 | 29.66 | NNW | 5 | 0.00 |
| 5 | 03/23 | 20:00 | 47 | 39 | 74 | 29.64 | W | 7 | 0.00 |
| 6 | 03/23 | 19:00 | 48 | 40 | 74 | 29.62 | NW | 10 | 0.00 |
| 7 | 03/23 | 18:00 | 50 | 41 | 72 | 29.58 | NW | 15 | 0.00 |
| 8 | 03/23 | 17:00 | 52 | 43 | 74 | 29.54 | WNW | 3 | 0.00 |
| 9 | 03/23 | 16:00 | 53 | 44 | 74 | 29.52 | WNW | 3 | 0.00 |
| 10 | 03/23 | 15:00 | 54 | 45 | 73 | 29.49 | NW | 12 | 0.00 |
| 11 | 03/23 | 14:00 | 56 | 45 | 67 | 29.49 | NW | 8 | 0.00 |
| 12 | 03/23 | 13:00 | 56 | 45 | 68 | 29.49 | SW | 3 | 0.00 |
| 13 | 03/23 | 12:00 | 56 | 45 | 69 | 29.51 | SW | 7 | 0.00 |
| 14 | 03/23 | 11:00 | 55 | 44 | 69 | 29.53 | SW | 4 | 0.00 |
| 15 | 03/23 | 10:00 | 53 | 44 | 72 | 29.52 | W | 7 | 0.00 |
| 16 | 03/23 | 09:00 | 50 | 43 | 77 | 29.54 | SW | 4 | 0.00 |
| 17 | 03/23 | 08:00 | 48 | 45 | 92 | 29.55 | SW | 4 | 0.00 |
| 18 | 03/23 | 07:00 | 47 | 45 | 93 | 29.54 | SSW | 3 | 0.00 |
| 19 | 03/23 | 06:00 | 48 | 44 | 89 | 29.54 | SSW | 2 | 0.00 |
| 20 | 03/23 | 05:00 | 49 | 45 | 88 | 29.53 | SSW | 3 | 0.00 |
| 21 | 03/23 | 04:00 | 52 | 47 | 86 | 29.55 | SSE | 4 | 0.00 |
| 22 | 03/23 | 03:00 | 53 | 49 | 89 | 29.56 | S | 4 | 0.00 |
| 23 | 03/23 | 02:00 | 54 | 52 | 94 | 29.57 | SSW | 4 | 0.00 |
| 24 | 03/23 | 01:00 | 55 | 54 | 97 | 29.57 | S | 2 | 0.00 |